createdAt,value
2019-03-09T00:00:44.977Z,3.37
2019-03-09T00:03:15.454Z,3.33
2019-03-09T00:05:46.044Z,3.10
2019-03-09T00:08:16.272Z,3.07
2019-03-09T00:10:46.830Z,2.97
2019-03-09T00:13:17.032Z,2.97
2019-03-09T00:15:47.610Z,3.10
2019-03-09T00:18:36.925Z,3.30
2019-03-09T00:21:07.801Z,3.20
2019-03-09T00:24:02.952Z,3.27
2019-03-09T00:26:58.255Z,3.07
2019-03-09T00:29:46.286Z,3.23
2019-03-09T00:32:18.866Z,3.37
2019-03-09T00:34:49.092Z,3.10
2019-03-09T00:37:19.572Z,3.10
2019-03-09T00:39:50.118Z,3.03
2019-03-09T00:42:20.480Z,3.50
2019-03-09T00:44:50.379Z,3.07
2019-03-09T00:47:21.133Z,2.90
2019-03-09T00:49:51.301Z,3.10
2019-03-09T00:52:21.838Z,3.00
2019-03-09T00:54:52.132Z,3.17
2019-03-09T00:57:22.906Z,3.20
2019-03-09T00:59:57.386Z,2.97
2019-03-09T01:02:28.108Z,3.63
2019-03-09T01:04:58.303Z,3.23
2019-03-09T01:07:28.954Z,2.80
2019-03-09T01:09:59.636Z,2.63
2019-03-09T01:12:29.416Z,3.10
2019-03-09T01:14:59.963Z,2.50
2019-03-09T01:17:30.106Z,2.90
2019-03-09T01:20:00.710Z,3.13
2019-03-09T01:22:31.293Z,2.70
2019-03-09T01:25:01.965Z,2.97
2019-03-09T01:27:32.176Z,2.70
2019-03-09T01:30:02.440Z,2.90
2019-03-09T01:32:32.546Z,2.63
2019-03-09T01:35:02.728Z,2.97
2019-03-09T01:37:32.896Z,2.90
2019-03-09T01:40:03.436Z,2.90
2019-03-09T01:42:33.650Z,3.53
2019-03-09T01:45:03.894Z,3.63
2019-03-09T01:47:34.158Z,2.80
2019-03-09T01:50:04.688Z,2.80
2019-03-09T01:52:34.658Z,3.10
2019-03-09T01:55:05.110Z,2.57
2019-03-09T01:57:35.566Z,2.63
2019-03-09T02:00:07.316Z,3.03
2019-03-09T02:02:37.907Z,2.90
2019-03-09T02:05:08.989Z,2.53
2019-03-09T02:07:39.054Z,3.00
2019-03-09T02:10:10.231Z,2.30
2019-03-09T02:12:40.756Z,2.57
2019-03-09T02:15:12.808Z,2.90
2019-03-09T02:17:43.278Z,2.70
2019-03-09T02:20:13.464Z,2.60
2019-03-09T02:22:44.001Z,2.67
2019-03-09T02:25:14.570Z,2.53
2019-03-09T02:27:45.119Z,2.77
2019-03-09T02:30:15.297Z,2.40
2019-03-09T02:32:45.849Z,2.50
2019-03-09T02:35:16.290Z,2.53
2019-03-09T02:37:46.142Z,2.30
2019-03-09T02:40:19.825Z,2.63
2019-03-09T02:42:49.875Z,2.30
2019-03-09T02:45:20.914Z,2.40
2019-03-09T02:47:51.216Z,2.40
2019-03-09T02:50:21.161Z,2.30
2019-03-09T02:52:51.735Z,2.40
2019-03-09T02:55:21.937Z,2.70
2019-03-09T02:57:51.927Z,2.30
2019-03-09T03:00:22.249Z,2.40
2019-03-09T03:02:56.137Z,2.10
2019-03-09T03:05:26.689Z,2.30
2019-03-09T03:07:57.333Z,2.20
2019-03-09T03:10:27.988Z,2.30
2019-03-09T03:12:58.468Z,2.40
2019-03-09T03:15:35.411Z,2.10
2019-03-09T03:18:06.121Z,1.90
2019-03-09T03:20:36.672Z,2.23
2019-03-09T03:23:07.314Z,2.50
2019-03-09T03:25:37.484Z,1.93
2019-03-09T03:28:07.675Z,2.13
2019-03-09T03:30:37.894Z,2.47
2019-03-09T03:33:08.210Z,2.20
2019-03-09T03:35:38.792Z,2.40
2019-03-09T03:38:09.393Z,2.10
2019-03-09T03:40:39.940Z,2.07
2019-03-09T03:43:09.725Z,2.00
2019-03-09T03:45:40.271Z,1.90
2019-03-09T03:48:10.787Z,2.00
2019-03-09T03:50:41.429Z,2.10
2019-03-09T03:53:11.980Z,2.20
2019-03-09T03:55:42.442Z,2.10
2019-03-09T03:58:12.913Z,1.70
2019-03-09T04:00:43.507Z,1.90
2019-03-09T04:03:14.053Z,2.10
2019-03-09T04:05:44.336Z,1.70
2019-03-09T04:08:14.974Z,1.83
2019-03-09T04:10:45.485Z,1.67
2019-03-09T04:13:15.940Z,1.50
2019-03-09T04:15:46.560Z,2.10
2019-03-09T04:18:17.177Z,1.60
2019-03-09T04:20:47.065Z,1.83
2019-03-09T04:23:17.362Z,1.93
2019-03-09T04:25:47.504Z,2.00
2019-03-09T04:28:17.433Z,1.80
2019-03-09T04:30:48.006Z,1.73
2019-03-09T04:33:18.273Z,1.73
2019-03-09T04:35:48.695Z,1.83
2019-03-09T04:38:19.162Z,1.90
2019-03-09T04:40:49.400Z,1.77
2019-03-09T04:43:19.972Z,1.80
2019-03-09T04:45:50.277Z,1.87
2019-03-09T04:48:20.841Z,1.83
2019-03-09T04:50:51.036Z,1.70
2019-03-09T04:53:21.482Z,1.90
2019-03-09T04:55:51.916Z,1.80
2019-03-09T04:58:22.412Z,2.20
2019-03-09T05:00:52.229Z,1.80
2019-03-09T05:03:22.839Z,1.80
2019-03-09T05:05:53.409Z,1.70
2019-03-09T05:08:50.200Z,2.10
2019-03-09T05:11:24.342Z,2.00
2019-03-09T05:14:10.100Z,1.70
2019-03-09T05:16:40.344Z,1.83
2019-03-09T05:19:10.821Z,1.83
2019-03-09T05:21:41.096Z,1.80
2019-03-09T05:24:11.010Z,1.73
2019-03-09T05:26:41.166Z,1.50
2019-03-09T05:29:10.960Z,1.80
2019-03-09T05:31:41.404Z,2.00
2019-03-09T05:34:11.554Z,1.97
2019-03-09T05:36:42.234Z,2.10
2019-03-09T05:39:12.810Z,1.57
2019-03-09T05:41:43.364Z,1.63
2019-03-09T05:44:13.941Z,2.23
2019-03-09T05:46:44.506Z,2.10
2019-03-09T05:49:14.732Z,1.70
2019-03-09T05:51:46.733Z,1.80
2019-03-09T05:54:17.342Z,1.90
2019-03-09T05:56:47.867Z,2.03
2019-03-09T05:59:18.458Z,1.97
2019-03-09T06:01:48.644Z,2.00
2019-03-09T06:04:18.986Z,1.80
2019-03-09T06:06:48.937Z,1.90
2019-03-09T06:09:18.852Z,1.80
2019-03-09T06:11:49.152Z,1.97
2019-03-09T06:14:19.759Z,2.00
2019-03-09T06:16:49.732Z,1.93
2019-03-09T06:19:19.615Z,1.57
2019-03-09T06:21:49.902Z,1.83
2019-03-09T06:24:20.501Z,1.73
2019-03-09T06:26:50.808Z,1.80
2019-03-09T06:29:20.645Z,2.00
2019-03-09T06:32:26.994Z,2.10
2019-03-09T06:34:57.311Z,1.97
2019-03-09T06:37:27.897Z,1.60
2019-03-09T06:39:59.002Z,1.40
2019-03-09T06:42:41.324Z,1.43
2019-03-09T06:45:17.085Z,1.73
2019-03-09T06:47:47.544Z,1.43
2019-03-09T06:50:19.500Z,1.80
2019-03-09T06:52:49.942Z,1.50
2019-03-09T06:55:20.468Z,1.80
2019-03-09T06:57:51.044Z,1.40
2019-03-09T07:00:32.645Z,1.23
2019-03-09T07:03:04.604Z,1.43
2019-03-09T07:05:34.819Z,1.57
2019-03-09T07:08:05.303Z,1.30
2019-03-09T07:10:35.684Z,1.70
2019-03-09T07:13:05.982Z,1.67
2019-03-09T07:15:38.632Z,1.40
2019-03-09T07:18:17.642Z,1.60
2019-03-09T07:20:48.190Z,1.40
2019-03-09T07:23:18.754Z,1.57
2019-03-09T07:25:49.246Z,1.67
2019-03-09T07:28:19.531Z,1.40
2019-03-09T07:30:49.364Z,1.90
2019-03-09T07:33:19.582Z,1.63
2019-03-09T07:35:49.791Z,1.53
2019-03-09T07:38:19.743Z,1.33
2019-03-09T07:40:50.114Z,1.10
2019-03-09T07:43:20.387Z,1.30
2019-03-09T07:45:50.809Z,1.23
2019-03-09T07:48:21.346Z,1.20
2019-03-09T07:50:51.930Z,1.20
2019-03-09T07:53:41.232Z,1.30
2019-03-09T07:56:11.907Z,1.37
2019-03-09T07:58:42.035Z,1.40
2019-03-09T08:01:12.039Z,1.20
2019-03-09T08:03:41.600Z,1.00
2019-03-09T08:06:11.540Z,1.00
2019-03-09T08:08:42.072Z,1.20
2019-03-09T08:11:12.224Z,1.23
2019-03-09T08:13:42.748Z,0.80
2019-03-09T08:16:12.902Z,0.90
2019-03-09T08:18:45.227Z,1.10
2019-03-09T08:21:15.248Z,1.17
2019-03-09T08:23:45.364Z,0.90
2019-03-09T08:26:15.633Z,0.60
2019-03-09T08:28:46.222Z,0.57
2019-03-09T08:31:16.434Z,0.80
2019-03-09T08:33:46.975Z,0.83
2019-03-09T08:36:17.624Z,0.60
2019-03-09T08:38:48.111Z,0.50
2019-03-09T08:41:18.576Z,0.70
2019-03-09T08:43:49.057Z,0.50
2019-03-09T08:46:19.294Z,0.50
2019-03-09T08:48:49.266Z,0.67
2019-03-09T08:51:19.516Z,0.80
2019-03-09T08:53:50.067Z,0.60
2019-03-09T08:56:20.698Z,0.90
2019-03-09T08:58:51.236Z,0.70
2019-03-09T09:01:21.770Z,0.80
2019-03-09T09:03:52.332Z,0.77
2019-03-09T09:06:22.892Z,0.40
2019-03-09T09:08:53.341Z,0.50
2019-03-09T09:11:24.036Z,0.60
2019-03-09T09:13:54.218Z,0.60
2019-03-09T09:16:24.428Z,0.50
2019-03-09T09:19:13.744Z,0.43
2019-03-09T09:21:44.030Z,0.50
2019-03-09T09:24:14.536Z,0.63
2019-03-09T09:26:45.132Z,0.50
2019-03-09T09:29:15.431Z,0.43
2019-03-09T09:31:46.119Z,0.40
2019-03-09T09:34:16.662Z,0.43
2019-03-09T09:36:47.189Z,0.60
2019-03-09T09:39:17.795Z,0.33
2019-03-09T09:41:48.378Z,0.50
2019-03-09T09:44:19.038Z,0.47
2019-03-09T09:46:49.648Z,0.40
2019-03-09T09:49:20.226Z,0.60
2019-03-09T09:51:50.862Z,0.40
2019-03-09T09:54:21.189Z,0.40
2019-03-09T09:56:51.114Z,0.40
2019-03-09T09:59:21.746Z,0.37
2019-03-09T10:01:51.644Z,0.50
2019-03-09T10:04:21.850Z,0.40
2019-03-09T10:06:52.431Z,0.40
2019-03-09T10:09:22.239Z,0.50
2019-03-09T10:11:52.478Z,0.40
2019-03-09T10:14:22.690Z,0.40
2019-03-09T10:16:53.064Z,0.50
2019-03-09T10:19:23.432Z,0.40
2019-03-09T10:21:53.938Z,0.60
2019-03-09T10:24:24.528Z,0.30
2019-03-09T10:26:55.062Z,0.40
2019-03-09T10:29:25.624Z,0.40
2019-03-09T10:31:56.202Z,0.50
2019-03-09T10:34:26.784Z,0.40
2019-03-09T10:36:57.047Z,0.50
2019-03-09T10:39:27.686Z,0.50
2019-03-09T10:41:58.172Z,0.40
2019-03-09T10:44:28.714Z,0.40
2019-03-09T10:46:59.080Z,0.50
2019-03-09T10:49:29.163Z,0.50
2019-03-09T10:52:00.690Z,0.47
2019-03-09T10:54:35.930Z,0.50
2019-03-09T10:57:03.607Z,0.30
2019-03-09T10:59:34.230Z,0.40
2019-03-09T11:02:04.072Z,0.50
2019-03-09T11:04:34.458Z,0.40
2019-03-09T11:07:05.022Z,0.50
2019-03-09T11:09:34.791Z,0.50
2019-03-09T11:12:05.424Z,0.50
2019-03-09T11:14:36.044Z,0.40
2019-03-09T11:17:06.732Z,0.50
2019-03-09T11:19:37.398Z,0.50
2019-03-09T11:22:07.318Z,0.50
2019-03-09T11:24:38.006Z,0.60
2019-03-09T11:27:08.642Z,0.50
2019-03-09T11:29:38.782Z,0.47
2019-03-09T11:32:09.008Z,0.50
2019-03-09T11:34:39.704Z,0.60
2019-03-09T11:37:09.818Z,0.60
2019-03-09T11:39:40.077Z,0.50
2019-03-09T11:42:10.380Z,0.50
2019-03-09T11:44:41.034Z,0.50
2019-03-09T11:47:11.518Z,0.33
2019-03-09T11:49:41.878Z,0.47
2019-03-09T11:52:19.859Z,0.50
2019-03-09T11:54:44.539Z,0.77
2019-03-09T11:57:15.224Z,0.60
2019-03-09T11:59:45.842Z,0.40
2019-03-09T12:02:15.866Z,0.50
2019-03-09T12:04:47.332Z,0.50
2019-03-09T12:07:18.068Z,0.50
2019-03-09T12:09:48.639Z,1.00
2019-03-09T12:12:19.392Z,1.03
2019-03-09T12:14:49.900Z,0.67
2019-03-09T12:17:20.408Z,0.73
2019-03-09T12:19:51.114Z,3.00
2019-03-09T12:22:21.727Z,0.60
2019-03-09T12:24:54.033Z,1.47
2019-03-09T12:27:23.842Z,1.60
2019-03-09T12:29:54.478Z,0.67
2019-03-09T12:32:24.370Z,0.60
2019-03-09T12:34:54.870Z,0.97
2019-03-09T12:37:25.190Z,2.60
2019-03-09T12:39:55.602Z,0.80
2019-03-09T12:42:26.177Z,0.63
2019-03-09T12:44:56.581Z,0.83
2019-03-09T12:47:27.041Z,0.80
2019-03-09T12:49:56.921Z,0.60
2019-03-09T12:52:27.479Z,0.50
2019-03-09T12:54:58.068Z,0.60
2019-03-09T12:57:27.961Z,0.60
2019-03-09T12:59:58.212Z,0.50
2019-03-09T13:02:28.925Z,0.53
2019-03-09T13:04:59.575Z,0.63
2019-03-09T13:07:30.210Z,0.60
2019-03-09T13:10:00.790Z,0.50
2019-03-09T13:12:32.493Z,0.60
2019-03-09T13:15:04.752Z,0.60
2019-03-09T13:17:35.231Z,0.67
2019-03-09T13:20:05.787Z,0.60
2019-03-09T13:22:35.730Z,0.50
2019-03-09T13:25:06.442Z,0.60
2019-03-09T13:27:36.774Z,0.70
2019-03-09T13:30:07.859Z,0.60
2019-03-09T13:32:38.500Z,1.20
2019-03-09T13:35:08.816Z,0.90
2019-03-09T13:37:39.307Z,0.80
2019-03-09T13:40:09.895Z,0.57
2019-03-09T13:42:40.181Z,0.80
2019-03-09T13:45:11.198Z,0.60
2019-03-09T13:47:41.687Z,0.60
2019-03-09T13:50:11.902Z,0.70
2019-03-09T13:52:43.397Z,0.40
2019-03-09T13:55:14.292Z,0.50
2019-03-09T13:57:44.666Z,0.50
2019-03-09T14:00:15.987Z,0.60
2019-03-09T14:02:47.008Z,0.50
2019-03-09T14:05:17.216Z,0.60
2019-03-09T14:07:47.535Z,0.70
2019-03-09T14:10:18.020Z,1.10
2019-03-09T14:12:48.580Z,0.60
2019-03-09T14:15:18.452Z,0.60
2019-03-09T14:17:49.089Z,0.70
2019-03-09T14:20:19.579Z,0.60
2019-03-09T14:22:49.935Z,0.77
2019-03-09T14:25:20.515Z,0.60
2019-03-09T14:27:51.051Z,0.67
2019-03-09T14:30:21.450Z,0.60
2019-03-09T14:32:52.080Z,0.70
2019-03-09T14:35:22.420Z,0.70
2019-03-09T14:37:52.800Z,0.70
2019-03-09T14:40:23.350Z,0.60
2019-03-09T14:42:54.100Z,0.60
2019-03-09T14:45:24.330Z,0.70
2019-03-09T14:47:54.814Z,0.70
2019-03-09T14:50:25.386Z,0.40
2019-03-09T14:52:55.551Z,0.50
2019-03-09T14:55:25.805Z,0.60
2019-03-09T14:57:56.174Z,0.60
2019-03-09T15:00:26.736Z,0.60
2019-03-09T15:02:57.296Z,0.90
2019-03-09T15:05:27.676Z,0.60
2019-03-09T15:07:58.252Z,0.60
2019-03-09T15:10:28.859Z,0.53
2019-03-09T15:12:59.187Z,0.60
2019-03-09T15:15:29.024Z,0.50
2019-03-09T15:17:58.482Z,0.60
2019-03-09T15:20:28.703Z,0.50
2019-03-09T15:22:58.995Z,0.40
2019-03-09T15:25:31.439Z,0.60
2019-03-09T15:28:02.205Z,0.63
2019-03-09T15:30:32.980Z,0.60
2019-03-09T15:33:03.201Z,0.60
2019-03-09T15:35:33.767Z,0.70
2019-03-09T15:38:04.464Z,0.50
2019-03-09T15:40:34.390Z,0.50
2019-03-09T15:43:05.312Z,0.40
2019-03-09T15:45:35.538Z,0.60
2019-03-09T15:48:06.139Z,0.60
2019-03-09T15:50:36.124Z,0.50
2019-03-09T15:53:06.296Z,0.60
2019-03-09T15:55:36.980Z,0.87
2019-03-09T15:58:06.793Z,1.43
2019-03-09T16:00:37.430Z,0.50
2019-03-09T16:03:07.649Z,0.53
2019-03-09T16:05:37.824Z,0.60
2019-03-09T16:08:08.508Z,0.60
2019-03-09T16:10:38.750Z,0.60
2019-03-09T16:13:09.364Z,0.60
2019-03-09T16:15:39.942Z,1.63
2019-03-09T16:18:10.183Z,3.60
2019-03-09T16:20:40.674Z,1.20
2019-03-09T16:23:10.986Z,0.77
2019-03-09T16:25:41.463Z,1.00
2019-03-09T16:28:11.994Z,0.97
2019-03-09T16:30:42.217Z,0.60
2019-03-09T16:33:12.709Z,0.60
2019-03-09T16:35:43.040Z,0.50
2019-03-09T16:38:12.938Z,0.67
2019-03-09T16:40:43.587Z,0.57
2019-03-09T16:43:13.620Z,0.50
2019-03-09T16:45:44.150Z,0.57
2019-03-09T16:48:13.638Z,0.40
2019-03-09T16:50:44.208Z,0.73
2019-03-09T16:53:14.428Z,0.50
2019-03-09T16:55:45.089Z,1.00
2019-03-09T16:58:15.868Z,1.40
2019-03-09T17:00:46.044Z,0.80
2019-03-09T17:03:15.906Z,0.80
2019-03-09T17:05:45.836Z,0.60
2019-03-09T17:08:16.146Z,0.60
2019-03-09T17:10:46.040Z,0.50
2019-03-09T17:13:16.318Z,0.60
2019-03-09T17:15:46.117Z,0.60
2019-03-09T17:18:16.376Z,0.60
2019-03-09T17:20:46.696Z,0.50
2019-03-09T17:23:16.685Z,0.90
2019-03-09T17:25:46.950Z,0.60
2019-03-09T17:28:17.542Z,0.60
2019-03-09T17:30:48.058Z,1.10
2019-03-09T17:33:18.558Z,1.00
2019-03-09T17:35:49.143Z,0.60
2019-03-09T17:38:19.405Z,0.70
2019-03-09T17:40:50.107Z,0.77
2019-03-09T17:43:20.772Z,0.87
2019-03-09T17:45:51.220Z,0.80
2019-03-09T17:48:21.518Z,0.80
2019-03-09T17:50:51.915Z,0.80
2019-03-09T17:53:22.496Z,0.90
2019-03-09T17:55:53.202Z,0.70
2019-03-09T17:58:23.666Z,0.80
2019-03-09T18:00:53.908Z,0.53
2019-03-09T18:03:24.207Z,0.87
2019-03-09T18:05:54.576Z,0.80
2019-03-09T18:08:25.246Z,0.73
2019-03-09T18:10:57.524Z,0.80
2019-03-09T18:13:28.210Z,0.70
2019-03-09T18:15:58.740Z,0.70
2019-03-09T18:18:28.726Z,0.83
2019-03-09T18:20:59.333Z,0.80
2019-03-09T18:23:30.095Z,0.87
2019-03-09T18:26:00.352Z,0.73
2019-03-09T18:28:31.037Z,0.63
2019-03-09T18:31:01.353Z,0.80
2019-03-09T18:33:31.246Z,0.70
2019-03-09T18:36:01.925Z,2.30
2019-03-09T18:38:32.478Z,1.00
2019-03-09T18:41:03.261Z,0.90
2019-03-09T18:43:34.666Z,1.00
2019-03-09T18:46:04.546Z,1.00
2019-03-09T18:48:34.712Z,1.33
2019-03-09T18:51:04.979Z,0.90
2019-03-09T18:53:35.237Z,0.97
2019-03-09T18:56:05.814Z,0.97
2019-03-09T18:58:36.006Z,0.90
2019-03-09T19:01:05.790Z,1.07
2019-03-09T19:03:36.297Z,0.90
2019-03-09T19:06:06.982Z,0.80
2019-03-09T19:08:37.620Z,0.90
2019-03-09T19:11:08.074Z,1.20
2019-03-09T19:13:38.661Z,1.40
2019-03-09T19:16:09.098Z,1.43
2019-03-09T19:18:39.395Z,1.30
2019-03-09T19:21:10.002Z,2.07
2019-03-09T19:23:40.604Z,1.27
2019-03-09T19:26:11.138Z,1.20
2019-03-09T19:28:41.642Z,1.10
2019-03-09T19:31:11.982Z,1.70
2019-03-09T19:33:42.543Z,1.70
2019-03-09T19:36:13.074Z,1.00
2019-03-09T19:38:43.399Z,2.00
2019-03-09T19:41:13.958Z,1.70
2019-03-09T19:43:44.639Z,1.70
2019-03-09T19:46:15.218Z,1.50
2019-03-09T19:48:45.510Z,1.17
2019-03-09T19:51:15.423Z,0.90
2019-03-09T19:53:45.938Z,1.10
2019-03-09T19:56:16.638Z,1.00
2019-03-09T19:58:47.330Z,1.03
2019-03-09T20:01:17.481Z,1.20
2019-03-09T20:03:48.207Z,1.33
2019-03-09T20:06:18.190Z,0.90
2019-03-09T20:08:48.834Z,0.90
2019-03-09T20:11:18.654Z,1.10
2019-03-09T20:13:48.823Z,1.20
2019-03-09T20:16:19.017Z,1.20
2019-03-09T20:18:48.879Z,7.77
2019-03-09T20:21:19.450Z,3.93
2019-03-09T20:23:49.609Z,1.30
2019-03-09T20:26:19.756Z,1.70
2019-03-09T20:28:50.089Z,1.60
2019-03-09T20:31:20.378Z,1.87
2019-03-09T20:33:50.531Z,1.50
2019-03-09T20:36:21.102Z,1.13
2019-03-09T20:38:51.612Z,1.60
2019-03-09T20:41:22.116Z,1.30
2019-03-09T20:43:52.705Z,1.30
2019-03-09T20:46:22.510Z,1.50
2019-03-09T20:48:53.119Z,1.30
2019-03-09T20:51:23.713Z,1.10
2019-03-09T20:53:54.226Z,1.20
2019-03-09T20:56:24.495Z,1.13
2019-03-09T20:58:54.774Z,1.10
2019-03-09T21:01:25.360Z,1.10
2019-03-09T21:03:55.982Z,1.20
2019-03-09T21:06:26.270Z,1.37
2019-03-09T21:08:56.861Z,1.10
2019-03-09T21:11:29.186Z,1.50
2019-03-09T21:13:59.607Z,1.30
2019-03-09T21:16:30.139Z,1.23
2019-03-09T21:19:00.340Z,1.10
2019-03-09T21:21:30.988Z,1.30
2019-03-09T21:24:01.554Z,1.13
2019-03-09T21:26:31.772Z,1.33
2019-03-09T21:29:02.374Z,1.37
2019-03-09T21:31:32.969Z,1.30
2019-03-09T21:34:03.240Z,1.17
2019-03-09T21:36:33.883Z,1.13
2019-03-09T21:39:05.407Z,1.50
2019-03-09T21:41:35.970Z,1.60
2019-03-09T21:44:06.444Z,1.50
2019-03-09T21:46:37.044Z,1.20
2019-03-09T21:49:07.666Z,1.50
2019-03-09T21:51:37.828Z,1.40
2019-03-09T21:54:07.865Z,1.20
2019-03-09T21:56:38.230Z,1.40
2019-03-09T21:59:08.950Z,1.10
2019-03-09T22:01:39.445Z,1.30
2019-03-09T22:04:09.711Z,1.40
2019-03-09T22:06:39.948Z,1.20
2019-03-09T22:09:10.524Z,1.20
2019-03-09T22:11:40.496Z,1.50
2019-03-09T22:14:10.716Z,1.40
2019-03-09T22:16:41.212Z,1.20
2019-03-09T22:19:11.468Z,1.30
2019-03-09T22:21:42.103Z,1.30
2019-03-09T22:24:12.334Z,1.13
2019-03-09T22:26:42.147Z,1.30
2019-03-09T22:29:12.783Z,1.20
2019-03-09T22:31:42.981Z,1.20
2019-03-09T22:34:13.669Z,1.30
2019-03-09T22:36:44.386Z,2.07
2019-03-09T22:39:14.976Z,1.00
2019-03-09T22:41:45.664Z,1.40
2019-03-09T22:44:18.476Z,1.33
2019-03-09T22:46:48.472Z,1.57
2019-03-09T22:49:18.628Z,1.50
2019-03-09T22:51:49.221Z,1.10
2019-03-09T22:54:19.684Z,1.27
2019-03-09T22:56:49.560Z,1.50
2019-03-09T22:59:20.306Z,1.37
2019-03-09T23:01:50.531Z,1.23
2019-03-09T23:04:20.686Z,1.20
2019-03-09T23:06:51.162Z,1.30
2019-03-09T23:09:21.638Z,1.10
2019-03-09T23:11:52.290Z,1.17
2019-03-09T23:14:22.584Z,1.10
2019-03-09T23:16:52.748Z,1.20
2019-03-09T23:19:23.006Z,1.80
2019-03-09T23:21:53.698Z,1.00
2019-03-09T23:24:28.190Z,1.20
2019-03-09T23:26:58.665Z,1.40
2019-03-09T23:29:28.878Z,1.30
2019-03-09T23:31:59.160Z,1.33
2019-03-09T23:34:29.742Z,1.23
2019-03-09T23:37:00.253Z,1.20
2019-03-09T23:39:30.472Z,1.40
2019-03-09T23:42:00.731Z,1.30
2019-03-09T23:44:31.410Z,1.13
2019-03-09T23:47:01.294Z,1.00
2019-03-09T23:49:31.975Z,1.10
2019-03-09T23:52:02.614Z,1.17
2019-03-09T23:54:33.175Z,1.40
2019-03-09T23:57:03.287Z,1.20
2019-03-09T23:59:33.584Z,1.30
